Oglasa — ITMG — position and weather

sailwx.info

Track history (hours):
 
Tides and Currents Weather Stations Pressure Air Temp Water Temp Dewpoint Dewpoint Depression Visibility Wind Speed Wind Dir Waves Ship Positions

Oglasa

Last reported at 2015-Jul-03 18:04 UTC. Time now 2015-Jul-04 01:41 UTC.
Position N 42°56' E 010°33'.

Length 91 m; draft 3.6 m.

Type: Ship. MMSI: 247046800.

Date/timePositionNaut miles runAvg speedWind from/ knotsBaromVisibWave heightAir tempDewpointWater temp
2015-Jul-03 18:04N 42°56' E 010°33'611.4
2015-Jul-03 17:33N 42°53' E 010°26'6 6.2
2015-Jul-03 16:33N 42°49' E 010°20'6 3.1
2015-Jul-03 14:33N 42°53' E 010°26'5 4.1
2015-Jul-03 13:24N 42°50' E 010°21'5 2.7
2015-Jul-03 11:33N 42°53' E 010°26'7 6.6
2015-Jul-03 10:33N 42°49' E 010°19'12 8.4
2015-Jul-03 09:06N 42°56' E 010°33'611.0
2015-Jul-03 08:34N 42°53' E 010°26'6 6.2
2015-Jul-03 07:33N 42°49' E 010°20'12 8.3
2015-Jul-03 06:06N 42°56' E 010°33'610.6
2015-Jul-03 05:33N 42°53' E 010°26'6 6.2
2015-Jul-03 04:32N 42°49' E 010°19'12 3.7
2015-Jul-03 01:14N 42°56' E 010°33'0 0.0
2015-Jul-02 16:06N 42°56' E 010°33'712.0
2015-Jul-02 15:32N 42°53' E 010°25'6 5.3
2015-Jul-02 14:29N 42°49' E 010°20'6 3.2
2015-Jul-02 12:33N 42°53' E 010°26'5 4.7
2015-Jul-02 11:33N 42°50' E 010°21'4 2.2
2015-Jul-02 09:33N 42°53' E 010°25'6 5.3
2015-Jul-02 08:30N 42°49' E 010°20'12 5.1
2015-Jul-02 06:11N 42°56' E 010°33'6 9.3
2015-Jul-02 05:34N 42°53' E 010°26'6 6.4
2015-Jul-02 04:33N 42°49' E 010°19'12 1.0
2015-Jul-01 16:05N 42°56' E 010°33'610.7
2015-Jul-01 15:34N 42°53' E 010°26'6 6.5
2015-Jul-01 14:33N 42°49' E 010°20'6 3.2
2015-Jul-01 12:34N 42°53' E 010°26'6 5.2
2015-Jul-01 11:29N 42°49' E 010°21'11 8.3
2015-Jul-01 10:08N 42°56' E 010°33'5 9.3
2015-Jul-01 09:34N 42°53' E 010°26'7 6.3
2015-Jul-01 08:29N 42°49' E 010°20'6 2.1
2015-Jul-01 05:33N 42°53' E 010°26'6 6.3
2015-Jul-01 04:33N 42°49' E 010°19'6 0.5
2015-Jun-30 15:33N 42°53' E 010°26'6 6.3
2015-Jun-30 14:33N 42°49' E 010°20'12 8.2
2015-Jun-30 13:03N 42°56' E 010°33'612.1
2015-Jun-30 12:33N 42°53' E 010°26'6 6.3
2015-Jun-30 11:33N 42°49' E 010°19'1212.3
2015-Jun-30 10:33N 42°56' E 010°33'6 5.7
2015-Jun-30 09:33N 42°53' E 010°26'7 6.6
2015-Jun-30 08:33N 42°49' E 010°19'12 8.7
2015-Jun-30 07:10N 42°56' E 010°33'0 0.0
2015-Jun-30 06:28N 42°56' E 010°33'6 6.3
2015-Jun-30 05:33N 42°53' E 010°26'6 6.4
2015-Jun-30 04:33N 42°49' E 010°20'12 1.2
2015-Jun-29 18:06N 42°56' E 010°33'610.7
2015-Jun-29 17:34N 42°53' E 010°26'7 6.4
2015-Jun-29 16:32N 42°49' E 010°19'12 8.4
2015-Jun-29 15:03N 42°56' E 010°33'612.4
2015-Jun-29 14:33N 42°53' E 010°26'6 6.3
2015-Jun-29 13:33N 42°49' E 010°19'12 8.4
2015-Jun-29 12:06N 42°56' E 010°33'610.6
2015-Jun-29 11:33N 42°53' E 010°26'6 5.9
2015-Jun-29 10:30N 42°48' E 010°20'12 8.4
2015-Jun-29 09:04N 42°56' E 010°33'612.1
2015-Jun-29 08:34N 42°53' E 010°26'5 5.0
2015-Jun-29 07:29N 42°49' E 010°21'6 3.0
2015-Jun-29 05:33N 42°53' E 010°26'7 6.8
2015-Jun-29 04:33N 42°49' E 010°19'12 1.2
2015-Jun-28 18:06N 42°56' E 010°33'610.7
2015-Jun-28 17:33N 42°53' E 010°26'6 6.5
2015-Jun-28 16:33N 42°49' E 010°19'12 8.4
2015-Jun-28 15:04N 42°56' E 010°33'913.8
2015-Jun-28 14:23N 42°51' E 010°22'3 3.1
2015-Jun-28 13:28N 42°49' E 010°20'12 8.5
2015-Jun-28 12:05N 42°56' E 010°33'610.6
2015-Jun-28 11:34N 42°53' E 010°26'7 6.5
2015-Jun-28 10:33N 42°49' E 010°19'6 3.1
2015-Jun-28 08:34N 42°53' E 010°26'6 5.6
2015-Jun-28 07:31N 42°49' E 010°20'12 8.8
2015-Jun-28 06:10N 42°56' E 010°33'711.0
2015-Jun-28 05:33N 42°53' E 010°25'5 5.4
2015-Jun-28 04:33N 42°49' E 010°19'7 0.6
2015-Jun-27 17:33N 42°53' E 010°27'7 6.8
2015-Jun-27 16:33N 42°49' E 010°19'12 8.4
2015-Jun-27 15:04N 42°56' E 010°33'612.0
2015-Jun-27 14:33N 42°53' E 010°26'6 6.2
2015-Jun-27 13:33N 42°49' E 010°20'12 8.3
2015-Jun-27 12:06N 42°56' E 010°33'610.5
2015-Jun-27 11:33N 42°53' E 010°26'6 6.3
2015-Jun-27 10:32N 42°49' E 010°19'1212.5
2015-Jun-27 09:33N 42°56' E 010°33'6 5.8
2015-Jun-27 08:33N 42°53' E 010°26'6 6.5
2015-Jun-27 07:34N 42°49' E 010°19'7 3.4
2015-Jun-27 05:34N 42°53' E 010°26'7 6.7
2015-Jun-27 04:34N 42°49' E 010°19'7 0.6
2015-Jun-26 17:33N 42°53' E 010°26'7 6.5
2015-Jun-26 16:33N 42°49' E 010°19'12 8.5
2015-Jun-26 15:07N 42°56' E 010°33'610.1
2015-Jun-26 14:33N 42°53' E 010°26'7 6.5
2015-Jun-26 13:34N 42°48' E 010°20'12 8.2
2015-Jun-26 12:05N 42°56' E 010°33'610.7
2015-Jun-26 11:34N 42°53' E 010°26'7 6.6
2015-Jun-26 10:33N 42°49' E 010°19'5 2.2
2015-Jun-26 08:26N 42°52' E 010°24'5 4.9
2015-Jun-26 07:30N 42°49' E 010°20'5 2.5
2015-Jun-26 05:27N 42°53' E 010°24'3 2.6
2015-Jun-26 04:20N 42°50' E 010°22'2 0.2
2015-Jun-25 14:32N 42°49' E 010°20'12 8.5
2015-Jun-25 13:09N 42°56' E 010°33'610.3
2015-Jun-25 12:33N 42°53' E 010°26'6 6.0
2015-Jun-25 11:33N 42°48' E 010°20'6 1.1
2015-Jun-25 05:33N 42°53' E 010°26'7 6.6
2015-Jun-25 04:33N 42°49' E 010°19'7 0.5
2015-Jun-24 15:33N 42°53' E 010°26'7 6.5
2015-Jun-24 14:33N 42°49' E 010°19'  
Track history (hours):
 
Tides and Currents Weather Stations Pressure Air Temp Water Temp Dewpoint Dewpoint Depression Visibility Wind Speed Wind Dir Waves Ship Positions

Oglasa

Last reported at 2015-Jul-03 18:04 UTC. Time now 2015-Jul-04 01:41 UTC.
Position N 42°56' E 010°33'.

Length 91 m; draft 3.6 m.

Type: Ship. MMSI: 247046800.

Date/timePositionNaut miles runAvg speedWind from/ knotsBaromVisibWave heightAir tempDewpointWater temp
2015-Jul-03 18:04N 42°56' E 010°33'611.4
2015-Jul-03 17:33N 42°53' E 010°26'6 6.2
2015-Jul-03 16:33N 42°49' E 010°20'6 3.1
2015-Jul-03 14:33N 42°53' E 010°26'5 4.1
2015-Jul-03 13:24N 42°50' E 010°21'5 2.7
2015-Jul-03 11:33N 42°53' E 010°26'7 6.6
2015-Jul-03 10:33N 42°49' E 010°19'12 8.4
2015-Jul-03 09:06N 42°56' E 010°33'611.0
2015-Jul-03 08:34N 42°53' E 010°26'6 6.2
2015-Jul-03 07:33N 42°49' E 010°20'12 8.3
2015-Jul-03 06:06N 42°56' E 010°33'610.6
2015-Jul-03 05:33N 42°53' E 010°26'6 6.2
2015-Jul-03 04:32N 42°49' E 010°19'12 3.7
2015-Jul-03 01:14N 42°56' E 010°33'0 0.0
2015-Jul-02 16:06N 42°56' E 010°33'712.0
2015-Jul-02 15:32N 42°53' E 010°25'6 5.3
2015-Jul-02 14:29N 42°49' E 010°20'6 3.2
2015-Jul-02 12:33N 42°53' E 010°26'5 4.7
2015-Jul-02 11:33N 42°50' E 010°21'4 2.2
2015-Jul-02 09:33N 42°53' E 010°25'6 5.3
2015-Jul-02 08:30N 42°49' E 010°20'12 5.1
2015-Jul-02 06:11N 42°56' E 010°33'6 9.3
2015-Jul-02 05:34N 42°53' E 010°26'6 6.4
2015-Jul-02 04:33N 42°49' E 010°19'12 1.0
2015-Jul-01 16:05N 42°56' E 010°33'610.7
2015-Jul-01 15:34N 42°53' E 010°26'6 6.5
2015-Jul-01 14:33N 42°49' E 010°20'6 3.2
2015-Jul-01 12:34N 42°53' E 010°26'6 5.2
2015-Jul-01 11:29N 42°49' E 010°21'11 8.3
2015-Jul-01 10:08N 42°56' E 010°33'5 9.3
2015-Jul-01 09:34N 42°53' E 010°26'7 6.3
2015-Jul-01 08:29N 42°49' E 010°20'6 2.1
2015-Jul-01 05:33N 42°53' E 010°26'6 6.3
2015-Jul-01 04:33N 42°49' E 010°19'6 0.5
2015-Jun-30 15:33N 42°53' E 010°26'6 6.3
2015-Jun-30 14:33N 42°49' E 010°20'12 8.2
2015-Jun-30 13:03N 42°56' E 010°33'612.1
2015-Jun-30 12:33N 42°53' E 010°26'6 6.3
2015-Jun-30 11:33N 42°49' E 010°19'1212.3
2015-Jun-30 10:33N 42°56' E 010°33'6 5.7
2015-Jun-30 09:33N 42°53' E 010°26'7 6.6
2015-Jun-30 08:33N 42°49' E 010°19'12 8.7
2015-Jun-30 07:10N 42°56' E 010°33'0 0.0
2015-Jun-30 06:28N 42°56' E 010°33'6 6.3
2015-Jun-30 05:33N 42°53' E 010°26'6 6.4
2015-Jun-30 04:33N 42°49' E 010°20'12 1.2
2015-Jun-29 18:06N 42°56' E 010°33'610.7
2015-Jun-29 17:34N 42°53' E 010°26'7 6.4
2015-Jun-29 16:32N 42°49' E 010°19'12 8.4
2015-Jun-29 15:03N 42°56' E 010°33'612.4
2015-Jun-29 14:33N 42°53' E 010°26'6 6.3
2015-Jun-29 13:33N 42°49' E 010°19'12 8.4
2015-Jun-29 12:06N 42°56' E 010°33'610.6
2015-Jun-29 11:33N 42°53' E 010°26'6 5.9
2015-Jun-29 10:30N 42°48' E 010°20'12 8.4
2015-Jun-29 09:04N 42°56' E 010°33'612.1
2015-Jun-29 08:34N 42°53' E 010°26'5 5.0
2015-Jun-29 07:29N 42°49' E 010°21'6 3.0
2015-Jun-29 05:33N 42°53' E 010°26'7 6.8
2015-Jun-29 04:33N 42°49' E 010°19'12 1.2
2015-Jun-28 18:06N 42°56' E 010°33'610.7
2015-Jun-28 17:33N 42°53' E 010°26'6 6.5
2015-Jun-28 16:33N 42°49' E 010°19'12 8.4
2015-Jun-28 15:04N 42°56' E 010°33'913.8
2015-Jun-28 14:23N 42°51' E 010°22'3 3.1
2015-Jun-28 13:28N 42°49' E 010°20'12 8.5
2015-Jun-28 12:05N 42°56' E 010°33'610.6
2015-Jun-28 11:34N 42°53' E 010°26'7 6.5
2015-Jun-28 10:33N 42°49' E 010°19'6 3.1
2015-Jun-28 08:34N 42°53' E 010°26'6 5.6
2015-Jun-28 07:31N 42°49' E 010°20'12 8.8
2015-Jun-28 06:10N 42°56' E 010°33'711.0
2015-Jun-28 05:33N 42°53' E 010°25'5 5.4
2015-Jun-28 04:33N 42°49' E 010°19'7 0.6
2015-Jun-27 17:33N 42°53' E 010°27'7 6.8
2015-Jun-27 16:33N 42°49' E 010°19'12 8.4
2015-Jun-27 15:04N 42°56' E 010°33'612.0
2015-Jun-27 14:33N 42°53' E 010°26'6 6.2
2015-Jun-27 13:33N 42°49' E 010°20'12 8.3
2015-Jun-27 12:06N 42°56' E 010°33'610.5
2015-Jun-27 11:33N 42°53' E 010°26'6 6.3
2015-Jun-27 10:32N 42°49' E 010°19'1212.5
2015-Jun-27 09:33N 42°56' E 010°33'6 5.8
2015-Jun-27 08:33N 42°53' E 010°26'6 6.5
2015-Jun-27 07:34N 42°49' E 010°19'7 3.4
2015-Jun-27 05:34N 42°53' E 010°26'7 6.7
2015-Jun-27 04:34N 42°49' E 010°19'7 0.6
2015-Jun-26 17:33N 42°53' E 010°26'7 6.5
2015-Jun-26 16:33N 42°49' E 010°19'12 8.5
2015-Jun-26 15:07N 42°56' E 010°33'610.1
2015-Jun-26 14:33N 42°53' E 010°26'7 6.5
2015-Jun-26 13:34N 42°48' E 010°20'12 8.2
2015-Jun-26 12:05N 42°56' E 010°33'610.7
2015-Jun-26 11:34N 42°53' E 010°26'7 6.6
2015-Jun-26 10:33N 42°49' E 010°19'5 2.2
2015-Jun-26 08:26N 42°52' E 010°24'5 4.9
2015-Jun-26 07:30N 42°49' E 010°20'5 2.5
2015-Jun-26 05:27N 42°53' E 010°24'3 2.6
2015-Jun-26 04:20N 42°50' E 010°22'2 0.2
2015-Jun-25 14:32N 42°49' E 010°20'12 8.5
2015-Jun-25 13:09N 42°56' E 010°33'610.3
2015-Jun-25 12:33N 42°53' E 010°26'6 6.0
2015-Jun-25 11:33N 42°48' E 010°20'6 1.1
2015-Jun-25 05:33N 42°53' E 010°26'7 6.6
2015-Jun-25 04:33N 42°49' E 010°19'7 0.5
2015-Jun-24 15:33N 42°53' E 010°26'7 6.5
2015-Jun-24 14:33N 42°49' E 010°19'  

Dump ship's entire track history